Darstellungsparameter: Aktuell verwendete Einstellungen:
Skalierung der Graphiken ... ?
xyx+y,   Skalierungsfaktor:      Skalierung: Modus: x, Faktor: 1
Darstellungszeitraum ... ?
Vom - - bis: - -   Zeitraum: 21.09.2018 - 21.09.2018
Min/Max/Avg-Anzeige ... ?
Zeige MMA aktuell
Zeige MMA Monat
Zeige MMA alles
Zeige --A aktuell
Zeige --A Monat
Zeige --A alles
Keine MMA-Anzeige
MMA:
Average (ber die Originaldaten)
MMA-Basis: 21.09.2018 - 21.09.2018
Quicknavigation für Darstellung... ?
Tage:      1T, 2T, 3T, 5T -1T -2T -3T -5T +1T +2T +3T +5T
Wochen: 1W, 2W, 3W -1W -2W -3W +1W +2W +3W
Monate: 1M, 3M, 6M -1M -3M -6M +1M +3M +6M
Jahre:    1J, 3J, 5J, 10J -1J -3J -5J -10J +1J +3J +5J +10J
Nutze für die Darstellung ... ?
Originaldaten oder Mittelwerte auf ...
Stundenbasis Tagesbasis Wochenbasis
Monatsbasis Jahresbasis      Datenbasis: Original-Daten
Darstellen als:
Statistik (Auto) Statistik J:M      Darstellung:
Zur Graphik,    zurück zur Übersicht aller Sensoren.
 
Tabellarische Datenbersicht: ?
 
Sensor: Nr:Datum:Temp:Abs-Feuchte:Windchill:Wind:
Aussen-T/F 1 21-09-2018 00:00:00 16.8 C 11.15 g/m*3 16.8 C 0 km/h
2 21-09-2018 00:05:00 16.8 C 11.15 g/m*3 16.8 C 0 km/h
3 21-09-2018 00:10:00 16.7 C 11.08 g/m*3 16.7 C 0 km/h
4 21-09-2018 00:15:00 16.6 C 11.16 g/m*3 16.6 C 0 km/h
5 21-09-2018 00:20:00 16.5 C 11.09 g/m*3 16.5 C 0 km/h
6 21-09-2018 00:25:00 16.4 C 11.03 g/m*3 16.4 C 0 km/h
7 21-09-2018 00:30:00 16.3 C 11.1 g/m*3 16.3 C 0 km/h
8 21-09-2018 00:35:00 16.2 C 11.03 g/m*3 16.2 C 0 km/h
9 21-09-2018 00:40:00 16.2 C 11.03 g/m*3 16.2 C 0 km/h
10 21-09-2018 00:45:00 16.2 C 11.17 g/m*3 16.2 C 0 km/h
11 21-09-2018 00:50:00 16.3 C 11.24 g/m*3 16.3 C 0 km/h
12 21-09-2018 00:55:00 16.2 C 11.17 g/m*3 16.2 C 0 km/h
13 21-09-2018 01:00:00 16.2 C 11.17 g/m*3 16.2 C 0 km/h
14 21-09-2018 01:05:00 16.2 C 11.31 g/m*3 16.2 C 0 km/h
15 21-09-2018 01:10:00 16.2 C 11.31 g/m*3 16.2 C 0 km/h
16 21-09-2018 01:15:00 16.1 C 11.24 g/m*3 16.1 C 0 km/h
17 21-09-2018 01:20:00 16.2 C 11.31 g/m*3 16.2 C 0 km/h
18 21-09-2018 01:25:00 16.2 C 11.31 g/m*3 16.2 C 0 km/h
19 21-09-2018 01:30:00 16.1 C 11.38 g/m*3 16.1 C 0 km/h
20 21-09-2018 01:35:00 16.1 C 11.38 g/m*3 16.1 C 0 km/h
21 21-09-2018 01:40:00 16.1 C 11.38 g/m*3 16.1 C 0 km/h
22 21-09-2018 01:45:00 16 C 11.31 g/m*3 16 C 0 km/h
23 21-09-2018 01:50:00 15.9 C 11.38 g/m*3 15.9 C 0 km/h
24 21-09-2018 01:55:00 15.9 C 11.38 g/m*3 15.9 C 0 km/h
25 21-09-2018 02:00:00 15.9 C 11.24 g/m*3 15.9 C 0 km/h
Sensor: Nr:Datum:Temp:Abs-Feuchte:Windchill:Wind:
Aussen-T/F 26 21-09-2018 02:05:00 15.9 C 11.24 g/m*3 15.9 C 0 km/h
27 21-09-2018 02:10:00 15.8 C 11.31 g/m*3 15.8 C 0 km/h
28 21-09-2018 02:15:00 15.8 C 11.31 g/m*3 15.8 C 0 km/h
29 21-09-2018 02:20:00 15.7 C 11.24 g/m*3 15.7 C 0 km/h
30 21-09-2018 02:25:00 15.7 C 11.37 g/m*3 15.7 C 0 km/h
31 21-09-2018 02:30:00 15.7 C 11.37 g/m*3 15.7 C 0 km/h
32 21-09-2018 02:35:00 15.7 C 11.37 g/m*3 15.7 C 0 km/h
33 21-09-2018 02:40:00 15.8 C 11.44 g/m*3 15.8 C 0 km/h
34 21-09-2018 02:45:00 15.8 C 11.44 g/m*3 15.8 C 0 km/h
35 21-09-2018 02:50:00 15.8 C 11.44 g/m*3 15.8 C 0 km/h
36 21-09-2018 02:55:00 15.8 C 11.44 g/m*3 15.8 C 0 km/h
37 21-09-2018 03:00:00 15.7 C 11.37 g/m*3 15.7 C 0 km/h
38 21-09-2018 03:05:00 15.7 C 11.37 g/m*3 15.7 C 1.6 km/h
39 21-09-2018 03:10:00 15.8 C 11.44 g/m*3 15.8 C 0 km/h
40 21-09-2018 03:15:00 15.8 C 11.44 g/m*3 15.8 C 0 km/h
41 21-09-2018 03:20:00 15.7 C 11.37 g/m*3 15.7 C 0 km/h
42 21-09-2018 03:25:00 15.8 C 11.58 g/m*3 15.8 C 0 km/h
43 21-09-2018 03:30:00 15.8 C 11.58 g/m*3 15.8 C 0 km/h
44 21-09-2018 03:35:00 15.8 C 11.58 g/m*3 15.8 C 0 km/h
45 21-09-2018 03:40:00 15.8 C 11.44 g/m*3 15.8 C 3.2 km/h
46 21-09-2018 03:45:00 15.9 C 11.51 g/m*3 15.9 C 0 km/h
47 21-09-2018 03:50:00 15.9 C 11.51 g/m*3 15.9 C 0 km/h
48 21-09-2018 03:55:00 15.8 C 11.44 g/m*3 15.8 C 0 km/h
49 21-09-2018 04:00:00 15.8 C 11.44 g/m*3 15.8 C 0 km/h
50 21-09-2018 04:05:00 15.7 C 11.37 g/m*3 15.7 C 0 km/h
Sensor: Nr:Datum:Temp:Abs-Feuchte:Windchill:Wind:
Aussen-T/F 51 21-09-2018 04:10:00 15.7 C 11.37 g/m*3 15.7 C 0 km/h
52 21-09-2018 04:15:00 15.6 C 11.3 g/m*3 15.6 C 0 km/h
53 21-09-2018 04:20:00 15.6 C 11.3 g/m*3 15.6 C 0 km/h
54 21-09-2018 04:25:00 15.6 C 11.3 g/m*3 15.6 C 0 km/h
55 21-09-2018 04:30:00 15.5 C 11.37 g/m*3 15.5 C 0 km/h
56 21-09-2018 04:35:00 15.6 C 11.44 g/m*3 15.6 C 0 km/h
57 21-09-2018 04:40:00 15.6 C 11.44 g/m*3 15.6 C 0 km/h
58 21-09-2018 04:45:00 15.6 C 11.44 g/m*3 15.6 C 0 km/h
59 21-09-2018 04:50:00 15.6 C 11.44 g/m*3 15.6 C 0 km/h
60 21-09-2018 04:55:00 15.6 C 11.44 g/m*3 15.6 C 0 km/h
61 21-09-2018 05:00:00 15.6 C 11.44 g/m*3 15.6 C 0 km/h
62 21-09-2018 05:05:00 15.7 C 11.51 g/m*3 15.7 C 0 km/h
63 21-09-2018 05:10:00 15.7 C 11.51 g/m*3 15.7 C 0 km/h
64 21-09-2018 05:15:00 15.7 C 11.51 g/m*3 15.7 C 0 km/h
65 21-09-2018 05:20:00 15.8 C 11.58 g/m*3 15.8 C 1.6 km/h
66 21-09-2018 05:25:00 15.8 C 11.58 g/m*3 15.8 C 0 km/h
67 21-09-2018 05:30:00 15.8 C 11.58 g/m*3 15.8 C 0 km/h
68 21-09-2018 05:35:00 15.8 C 11.58 g/m*3 15.8 C 0 km/h
69 21-09-2018 05:40:00 15.8 C 11.58 g/m*3 15.8 C 0 km/h
70 21-09-2018 05:45:00 15.8 C 11.58 g/m*3 15.8 C 0 km/h
71 21-09-2018 05:50:00 15.7 C 11.51 g/m*3 15.7 C 0 km/h
72 21-09-2018 05:55:00 15.7 C 11.51 g/m*3 15.7 C 0 km/h
73 21-09-2018 06:00:00 15.7 C 11.51 g/m*3 15.7 C 0 km/h
74 21-09-2018 06:05:00 15.7 C 11.51 g/m*3 15.7 C 1.6 km/h
75 21-09-2018 06:10:00 15.7 C 11.51 g/m*3 15.7 C 0 km/h
Sensor: Nr:Datum:Temp:Abs-Feuchte:Windchill:Wind:
Aussen-T/F 76 21-09-2018 06:15:00 15.7 C 11.51 g/m*3 15.7 C 0 km/h
77 21-09-2018 06:20:00 15.7 C 11.51 g/m*3 15.7 C 0 km/h
78 21-09-2018 06:25:00 15.7 C 11.51 g/m*3 15.7 C 0 km/h
79 21-09-2018 06:30:00 15.8 C 11.58 g/m*3 15.8 C 0 km/h
80 21-09-2018 06:35:00 15.8 C 11.44 g/m*3 15.8 C 0 km/h
81 21-09-2018 06:40:00 15.9 C 11.51 g/m*3 15.9 C 0 km/h
82 21-09-2018 06:45:00 15.9 C 11.51 g/m*3 15.9 C 0 km/h
83 21-09-2018 06:50:00 15.9 C 11.51 g/m*3 15.9 C 0 km/h
84 21-09-2018 06:55:00 15.9 C 11.38 g/m*3 15.9 C 0 km/h
85 21-09-2018 07:00:00 16 C 11.44 g/m*3 16 C 0 km/h
86 21-09-2018 07:05:00 16.1 C 11.51 g/m*3 16.1 C 0 km/h
87 21-09-2018 07:10:00 16.1 C 11.51 g/m*3 16.1 C 0 km/h
88 21-09-2018 07:15:00 16.1 C 11.51 g/m*3 16.1 C 0 km/h
89 21-09-2018 07:20:00 16.2 C 11.45 g/m*3 16.2 C 0 km/h
90 21-09-2018 07:25:00 16.2 C 11.58 g/m*3 16.2 C 0 km/h
91 21-09-2018 07:30:00 16.2 C 11.45 g/m*3 16.2 C 0 km/h
92 21-09-2018 07:35:00 16.3 C 11.65 g/m*3 16.3 C 0 km/h
93 21-09-2018 07:40:00 16.3 C 11.65 g/m*3 16.3 C 0 km/h
94 21-09-2018 07:45:00 16.3 C 11.65 g/m*3 16.3 C 0 km/h
95 21-09-2018 07:50:00 16.3 C 11.65 g/m*3 16.3 C 0 km/h
96 21-09-2018 07:55:00 16.4 C 11.72 g/m*3 16.4 C 0 km/h
97 21-09-2018 08:00:00 16.5 C 11.8 g/m*3 16.5 C 0 km/h
98 21-09-2018 08:05:00 16.6 C 11.87 g/m*3 16.6 C 0 km/h
99 21-09-2018 08:10:00 16.7 C 11.94 g/m*3 16.7 C 1.6 km/h
100 21-09-2018 08:15:00 16.8 C 11.87 g/m*3 16.8 C 1.6 km/h
Sensor: Nr:Datum:Temp:Abs-Feuchte:Windchill:Wind:
Aussen-T/F 101 21-09-2018 08:20:00 16.9 C 11.94 g/m*3 16.9 C 0 km/h
102 21-09-2018 08:25:00 17 C 12.01 g/m*3 17 C 0 km/h
103 21-09-2018 08:30:00 17.2 C 12.15 g/m*3 17.2 C 0 km/h
104 21-09-2018 08:35:00 17.3 C 12.08 g/m*3 17.3 C 1.6 km/h
105 21-09-2018 08:40:00 17.4 C 12.15 g/m*3 17.4 C 3.2 km/h
106 21-09-2018 08:45:00 17.6 C 12.15 g/m*3 17.6 C 1.6 km/h
107 21-09-2018 08:50:00 18 C 12.29 g/m*3 18 C 3.2 km/h
108 21-09-2018 08:55:00 18.6 C 12.41 g/m*3 18.6 C 8.1 km/h
109 21-09-2018 09:00:00 19.2 C 12.37 g/m*3 19.2 C 9.7 km/h
110 21-09-2018 09:05:00 19.7 C 12.4 g/m*3 19.7 C 11.3 km/h
111 21-09-2018 09:10:00 20.1 C 12.52 g/m*3 20.1 C 12.9 km/h
112 21-09-2018 09:15:00 20.3 C 12.49 g/m*3 20.3 C 11.3 km/h
113 21-09-2018 09:20:00 20.6 C 12.53 g/m*3 20.6 C 16.1 km/h
114 21-09-2018 09:25:00 20.9 C 12.57 g/m*3 20.9 C 9.7 km/h
115 21-09-2018 09:30:00 21.1 C 12.53 g/m*3 21.1 C 19.3 km/h
116 21-09-2018 09:35:00 21.3 C 12.68 g/m*3 21.3 C 16.1 km/h
117 21-09-2018 09:40:00 21.4 C 12.56 g/m*3 21.4 C 9.7 km/h
118 21-09-2018 09:45:00 21.4 C 12.19 g/m*3 21.4 C 9.7 km/h
119 21-09-2018 09:50:00 21.5 C 12.26 g/m*3 21.5 C 11.3 km/h
120 21-09-2018 09:55:00 21.6 C 11.95 g/m*3 21.6 C 12.9 km/h
121 21-09-2018 10:00:00 21.7 C 11.83 g/m*3 21.7 C 14.5 km/h
122 21-09-2018 10:05:00 21.8 C 11.51 g/m*3 21.8 C 16.1 km/h
123 21-09-2018 10:10:00 21.9 C 11.77 g/m*3 21.9 C 17.7 km/h
124 21-09-2018 10:15:00 21.9 C 11.58 g/m*3 21.9 C 12.9 km/h
125 21-09-2018 10:20:00 22.1 C 11.52 g/m*3 22.1 C 11.3 km/h
Sensor: Nr:Datum:Temp:Abs-Feuchte:Windchill:Wind:
Aussen-T/F 126 21-09-2018 10:25:00 22.2 C 11.58 g/m*3 22.2 C 12.9 km/h
127 21-09-2018 10:30:00 22.3 C 11.45 g/m*3 22.3 C 16.1 km/h
128 21-09-2018 10:35:00 22.4 C 11.32 g/m*3 22.4 C 16.1 km/h
129 21-09-2018 10:40:00 22.5 C 11.58 g/m*3 22.5 C 9.7 km/h
130 21-09-2018 10:45:00 22.6 C 11.65 g/m*3 22.6 C 11.3 km/h
131 21-09-2018 10:50:00 22.7 C 11.72 g/m*3 22.7 C 9.7 km/h
132 21-09-2018 10:55:00 22.8 C 11.79 g/m*3 22.8 C 11.3 km/h
133 21-09-2018 11:00:00 22.9 C 11.44 g/m*3 22.9 C 20.9 km/h
134 21-09-2018 11:05:00 22.9 C 11.44 g/m*3 22.9 C 25.7 km/h
135 21-09-2018 11:10:00 22.8 C 11.38 g/m*3 22.8 C 20.9 km/h
136 21-09-2018 11:15:00 22.6 C 11.25 g/m*3 22.6 C 19.3 km/h
137 21-09-2018 11:20:00 22.5 C 11.39 g/m*3 22.5 C 11.3 km/h
138 21-09-2018 11:25:00 22.4 C 11.32 g/m*3 22.4 C 22.5 km/h
139 21-09-2018 11:30:00 22.5 C 11.39 g/m*3 22.5 C 24.1 km/h
140 21-09-2018 11:35:00 22.5 C 11.39 g/m*3 22.5 C 20.9 km/h
141 21-09-2018 11:40:00 22.6 C 11.45 g/m*3 22.6 C 22.5 km/h
142 21-09-2018 11:45:00 22.7 C 11.72 g/m*3 22.7 C 19.3 km/h
143 21-09-2018 11:50:00 22.7 C 11.52 g/m*3 22.7 C 22.5 km/h
144 21-09-2018 11:55:00 22.7 C 11.72 g/m*3 22.7 C 14.5 km/h
145 21-09-2018 12:00:00 22.6 C 11.85 g/m*3 22.6 C 19.3 km/h
146 21-09-2018 12:05:00 22.4 C 11.92 g/m*3 22.4 C 17.7 km/h
147 21-09-2018 12:10:00 22.3 C 12.05 g/m*3 22.3 C 22.5 km/h
148 21-09-2018 12:15:00 22.1 C 12.49 g/m*3 22.1 C 9.7 km/h
149 21-09-2018 12:20:00 21.7 C 12.21 g/m*3 21.7 C 19.3 km/h
150 21-09-2018 12:25:00 21.6 C 12.52 g/m*3 21.6 C 14.5 km/h
Sensor: Nr:Datum:Temp:Abs-Feuchte:Windchill:Wind:
Aussen-T/F 151 21-09-2018 12:30:00 21.6 C 12.52 g/m*3 21.6 C 12.9 km/h
152 21-09-2018 12:35:00 21.7 C 12.59 g/m*3 21.7 C 19.3 km/h
153 21-09-2018 12:40:00 21.7 C 12.59 g/m*3 21.7 C 25.7 km/h
154 21-09-2018 12:45:00 21.7 C 12.78 g/m*3 21.7 C 20.9 km/h
155 21-09-2018 12:50:00 21.6 C 12.71 g/m*3 21.6 C 22.5 km/h
156 21-09-2018 12:55:00 21.4 C 12.56 g/m*3 21.4 C 17.7 km/h
157 21-09-2018 13:00:00 21.2 C 12.6 g/m*3 21.2 C 33.8 km/h
158 21-09-2018 13:05:00 21.1 C 12.71 g/m*3 21.1 C 24.1 km/h
159 21-09-2018 13:10:00 20.7 C 13.32 g/m*3 20.7 C 17.7 km/h
160 21-09-2018 13:15:00 20.1 C 13.56 g/m*3 20.1 C 17.7 km/h
161 21-09-2018 13:20:00 18.5 C 11.87 g/m*3 18.5 C 22.5 km/h
162 21-09-2018 13:25:00 17 C 11.43 g/m*3 17 C 9.7 km/h
163 21-09-2018 13:30:00 16.3 C 11.52 g/m*3 16.3 C 1.6 km/h
164 21-09-2018 13:35:00 15.9 C 11.51 g/m*3 15.9 C 8.1 km/h
165 21-09-2018 13:40:00 15.5 C 11.5 g/m*3 15.5 C 4.8 km/h
166 21-09-2018 13:45:00 15.2 C 11.42 g/m*3 15.2 C 6.4 km/h
167 21-09-2018 13:50:00 14.9 C 11.22 g/m*3 14.9 C 3.2 km/h
168 21-09-2018 13:55:00 14.7 C 11.21 g/m*3 14.7 C 4.8 km/h
169 21-09-2018 14:00:00 14.4 C 11 g/m*3 14.4 C 4.8 km/h
170 21-09-2018 14:05:00 14.3 C 11.06 g/m*3 14.3 C 1.6 km/h
171 21-09-2018 14:10:00 14.2 C 11.11 g/m*3 14.2 C 1.6 km/h
172 21-09-2018 14:15:00 14.1 C 11.04 g/m*3 14.1 C 1.6 km/h
173 21-09-2018 14:20:00 14.1 C 11.04 g/m*3 14.1 C 3.2 km/h
174 21-09-2018 14:25:00 14 C 10.98 g/m*3 14 C 4.8 km/h
175 21-09-2018 14:30:00 13.8 C 10.96 g/m*3 13.8 C 4.8 km/h
Sensor: Nr:Datum:Temp:Abs-Feuchte:Windchill:Wind:
Aussen-T/F 176 21-09-2018 14:35:00 13.8 C 10.96 g/m*3 13.8 C 4.8 km/h
177 21-09-2018 14:40:00 13.8 C 10.96 g/m*3 13.8 C 8.1 km/h
178 21-09-2018 14:45:00 13.7 C 10.89 g/m*3 13.7 C 3.2 km/h
179 21-09-2018 14:50:00 13.8 C 11.08 g/m*3 13.8 C 4.8 km/h
180 21-09-2018 14:55:00 13.8 C 11.08 g/m*3 13.8 C 1.6 km/h
181 21-09-2018 15:00:00 13.9 C 11.27 g/m*3 13.9 C 1.6 km/h
182 21-09-2018 15:05:00 14.1 C 11.41 g/m*3 14.1 C 1.6 km/h
183 21-09-2018 15:10:00 14.2 C 11.48 g/m*3 14.2 C 0 km/h
184 21-09-2018 15:15:00 14.4 C 11.62 g/m*3 14.4 C 4.8 km/h
185 21-09-2018 15:20:00 14.6 C 11.76 g/m*3 14.6 C 0 km/h
186 21-09-2018 15:25:00 14.7 C 11.83 g/m*3 14.7 C 1.6 km/h
187 21-09-2018 15:30:00 14.7 C 11.83 g/m*3 14.7 C 4.8 km/h
188 21-09-2018 15:35:00 14.7 C 11.71 g/m*3 14.7 C 4.8 km/h
189 21-09-2018 15:40:00 14.7 C 11.83 g/m*3 14.7 C 3.2 km/h
190 21-09-2018 15:45:00 14.7 C 11.71 g/m*3 14.7 C 3.2 km/h
191 21-09-2018 15:50:00 14.7 C 11.71 g/m*3 14.7 C 6.4 km/h
192 21-09-2018 15:55:00 14.8 C 11.78 g/m*3 14.8 C 1.6 km/h
193 21-09-2018 16:00:00 14.7 C 11.71 g/m*3 14.7 C 3.2 km/h
194 21-09-2018 16:05:00 14.8 C 11.78 g/m*3 14.8 C 4.8 km/h
195 21-09-2018 16:10:00 14.8 C 11.91 g/m*3 14.8 C 1.6 km/h
196 21-09-2018 16:15:00 14.9 C 11.98 g/m*3 14.9 C 3.2 km/h
197 21-09-2018 16:20:00 14.8 C 11.78 g/m*3 14.8 C 4.8 km/h
198 21-09-2018 16:25:00 14.8 C 11.78 g/m*3 14.8 C 6.4 km/h
199 21-09-2018 16:30:00 14.8 C 11.78 g/m*3 14.8 C 8.1 km/h
200 21-09-2018 16:35:00 14.7 C 11.71 g/m*3 14.7 C 8.1 km/h
Sensor: Nr:Datum:Temp:Abs-Feuchte:Windchill:Wind:
Aussen-T/F 201 21-09-2018 16:40:00 14.8 C 11.78 g/m*3 14.8 C 8.1 km/h
202 21-09-2018 16:45:00 14.8 C 11.78 g/m*3 14.8 C 3.2 km/h
203 21-09-2018 16:50:00 14.9 C 11.85 g/m*3 14.9 C 1.6 km/h
204 21-09-2018 16:55:00 14.6 C 11.01 g/m*3 14.6 C 9.7 km/h
205 21-09-2018 17:00:00 14.3 C 10.2 g/m*3 14.3 C 14.5 km/h
206 21-09-2018 17:05:00 14.2 C 9.77 g/m*3 14.2 C 19.3 km/h
207 21-09-2018 17:10:00 14.3 C 9.71 g/m*3 14.3 C 11.3 km/h
208 21-09-2018 17:15:00 14.3 C 9.58 g/m*3 14.3 C 8.1 km/h
209 21-09-2018 17:20:00 14.3 C 9.34 g/m*3 14.3 C 9.7 km/h
210 21-09-2018 17:25:00 14.4 C 10.14 g/m*3 14.4 C 4.8 km/h
211 21-09-2018 17:30:00 14.3 C 10.44 g/m*3 14.3 C 8.1 km/h
212 21-09-2018 17:35:00 13.9 C 10.07 g/m*3 13.9 C 3.2 km/h
213 21-09-2018 17:40:00 13.6 C 9.42 g/m*3 13.6 C 12.9 km/h
214 21-09-2018 17:45:00 13.5 C 9.24 g/m*3 13.5 C 9.7 km/h
215 21-09-2018 17:50:00 13.5 C 9.01 g/m*3 13.5 C 14.5 km/h
216 21-09-2018 17:55:00 13.7 C 8.53 g/m*3 13.7 C 12.9 km/h
217 21-09-2018 18:00:00 13.9 C 8.39 g/m*3 13.9 C 16.1 km/h
218 21-09-2018 18:05:00 14.1 C 9.1 g/m*3 14.1 C 9.7 km/h
219 21-09-2018 18:10:00 14.1 C 9.71 g/m*3 14.1 C 4.8 km/h
220 21-09-2018 18:15:00 13.8 C 9.17 g/m*3 13.8 C 11.3 km/h
221 21-09-2018 18:20:00 13.7 C 9.24 g/m*3 13.7 C 9.7 km/h
222 21-09-2018 18:25:00 13.7 C 9 g/m*3 13.7 C 9.7 km/h
223 21-09-2018 18:30:00 13.7 C 8.53 g/m*3 13.7 C 16.1 km/h
224 21-09-2018 18:35:00 13.8 C 8.46 g/m*3 13.8 C 14.5 km/h
225 21-09-2018 18:40:00 13.9 C 8.51 g/m*3 13.9 C 11.3 km/h
Sensor: Nr:Datum:Temp:Abs-Feuchte:Windchill:Wind:
Aussen-T/F 226 21-09-2018 18:45:00 14.1 C 8.5 g/m*3 14.1 C 11.3 km/h
227 21-09-2018 18:50:00 14.6 C 8.76 g/m*3 14.6 C 12.9 km/h
228 21-09-2018 18:55:00 14.8 C 8.49 g/m*3 14.8 C 9.7 km/h
229 21-09-2018 19:00:00 15 C 8.33 g/m*3 15 C 9.7 km/h
230 21-09-2018 19:05:00 15.1 C 8.9 g/m*3 15.1 C 6.4 km/h
231 21-09-2018 19:10:00 15.1 C 9.03 g/m*3 15.1 C 4.8 km/h
232 21-09-2018 19:15:00 14.8 C 8.49 g/m*3 14.8 C 9.7 km/h
233 21-09-2018 19:20:00 14.4 C 8.41 g/m*3 14.4 C 9.7 km/h
234 21-09-2018 19:25:00 14.1 C 8.37 g/m*3 14.1 C 14.5 km/h
235 21-09-2018 19:30:00 13.8 C 8.1 g/m*3 13.8 C 14.5 km/h
236 21-09-2018 19:35:00 13.6 C 8.12 g/m*3 13.6 C 11.3 km/h
237 21-09-2018 19:40:00 13.4 C 8.02 g/m*3 13.4 C 11.3 km/h
238 21-09-2018 19:45:00 13.3 C 8.43 g/m*3 13.3 C 4.8 km/h
239 21-09-2018 19:50:00 13.1 C 8.44 g/m*3 13.1 C 1.6 km/h
240 21-09-2018 19:55:00 12.8 C 8.4 g/m*3 12.8 C 3.2 km/h
241 21-09-2018 20:00:00 12.6 C 8.52 g/m*3 12.6 C 4.8 km/h
242 21-09-2018 20:05:00 12.4 C 8.3 g/m*3 12.4 C 3.2 km/h
243 21-09-2018 20:10:00 12.3 C 8.36 g/m*3 12.3 C 0 km/h
244 21-09-2018 20:15:00 12.2 C 8.52 g/m*3 12.2 C 1.6 km/h
245 21-09-2018 20:20:00 12.1 C 8.36 g/m*3 12.1 C 8.1 km/h
246 21-09-2018 20:25:00 12 C 8.42 g/m*3 12 C 1.6 km/h
247 21-09-2018 20:30:00 11.9 C 8.47 g/m*3 11.9 C 1.6 km/h
248 21-09-2018 20:35:00 11.8 C 8.42 g/m*3 11.8 C 0 km/h
249 21-09-2018 20:40:00 11.6 C 8.42 g/m*3 11.6 C 0 km/h
250 21-09-2018 20:45:00 11.4 C 8.31 g/m*3 11.4 C 1.6 km/h
Sensor: Nr:Datum:Temp:Abs-Feuchte:Windchill:Wind:
Aussen-T/F 251 21-09-2018 20:50:00 11.2 C 8.21 g/m*3 11.2 C 0 km/h
252 21-09-2018 20:55:00 11.1 C 8.36 g/m*3 11.1 C 1.6 km/h
253 21-09-2018 21:00:00 11 C 8.31 g/m*3 11 C 0 km/h
254 21-09-2018 21:05:00 10.8 C 8.3 g/m*3 10.8 C 1.6 km/h
255 21-09-2018 21:10:00 10.7 C 8.35 g/m*3 10.7 C 0 km/h
256 21-09-2018 21:15:00 10.6 C 8.3 g/m*3 10.6 C 0 km/h
257 21-09-2018 21:20:00 10.6 C 8.3 g/m*3 10.6 C 1.6 km/h
258 21-09-2018 21:25:00 10.5 C 8.24 g/m*3 10.5 C 4.8 km/h
259 21-09-2018 21:30:00 10.6 C 8.2 g/m*3 9.4 C 9.7 km/h
260 21-09-2018 21:35:00 10.8 C 8.01 g/m*3 9.16 C 12.9 km/h
261 21-09-2018 21:40:00 11.1 C 7.96 g/m*3 11.1 C 8.1 km/h
262 21-09-2018 21:45:00 11.6 C 8.11 g/m*3 11.6 C 12.9 km/h
263 21-09-2018 21:50:00 11.8 C 8.1 g/m*3 11.8 C 3.2 km/h
264 21-09-2018 21:55:00 11.8 C 8 g/m*3 11.8 C 3.2 km/h
265 21-09-2018 22:00:00 11.9 C 7.94 g/m*3 11.9 C 6.4 km/h
266 21-09-2018 22:05:00 12.1 C 8.15 g/m*3 12.1 C 4.8 km/h
267 21-09-2018 22:10:00 12.1 C 8.15 g/m*3 12.1 C 6.4 km/h
268 21-09-2018 22:15:00 11.9 C 7.94 g/m*3 11.9 C 4.8 km/h
269 21-09-2018 22:20:00 11.9 C 7.94 g/m*3 11.9 C 4.8 km/h
270 21-09-2018 22:25:00 11.9 C 7.94 g/m*3 11.9 C 9.7 km/h
271 21-09-2018 22:30:00 11.9 C 7.73 g/m*3 11.9 C 16.1 km/h
272 21-09-2018 22:35:00 12.1 C 7.94 g/m*3 12.1 C 8.1 km/h
273 21-09-2018 22:40:00 12.1 C 7.72 g/m*3 12.1 C 6.4 km/h
274 21-09-2018 22:45:00 12.1 C 7.72 g/m*3 12.1 C 6.4 km/h
275 21-09-2018 22:50:00 12.2 C 7.77 g/m*3 12.2 C 11.3 km/h
Sensor: Nr:Datum:Temp:Abs-Feuchte:Windchill:Wind:
Aussen-T/F 276 21-09-2018 22:55:00 12.4 C 7.87 g/m*3 12.4 C 11.3 km/h
277 21-09-2018 23:00:00 12.4 C 7.76 g/m*3 12.4 C 11.3 km/h
278 21-09-2018 23:05:00 12.6 C 7.74 g/m*3 12.6 C 16.1 km/h
279 21-09-2018 23:10:00 12.6 C 7.74 g/m*3 12.6 C 4.8 km/h
280 21-09-2018 23:15:00 12.6 C 7.85 g/m*3 12.6 C 9.7 km/h
281 21-09-2018 23:20:00 12.4 C 7.65 g/m*3 12.4 C 8.1 km/h
282 21-09-2018 23:25:00 12.3 C 7.82 g/m*3 12.3 C 6.4 km/h
283 21-09-2018 23:30:00 12.3 C 7.71 g/m*3 12.3 C 4.8 km/h
284 21-09-2018 23:35:00 12.2 C 7.66 g/m*3 12.2 C 4.8 km/h
285 21-09-2018 23:40:00 12.2 C 7.77 g/m*3 12.2 C 3.2 km/h
286 21-09-2018 23:45:00 12.2 C 7.88 g/m*3 12.2 C 6.4 km/h
287 21-09-2018 23:50:00 12.2 C 7.77 g/m*3 12.2 C 6.4 km/h
288 21-09-2018 23:55:00 12.2 C 7.77 g/m*3 12.2 C 8.1 km/h

Legende:
   Min
   Max


Maximal/Minimal-Werte vom 21.09.2018 - 21.09.2018

Sensor Min Max Avg
Temp
(Aussen-T/F)
10.5 °C
21-09-2018  21:25:00
22.9 °C
21-09-2018  11:00:00
15.93 °C
Abs-Feuchte
(Aussen-T/F)
7.65 g/m*3
21-09-2018  23:20:00
13.56 g/m*3
21-09-2018  13:15:00
10.66 g/m*3
Windchill
(Aussen-T/F)
9.16 C
21-09-2018  21:35:00
22.9 C
21-09-2018  11:00:00
15.87 C

Die Daten stammen von einer Davis Vantage Pro 2 Wetter-Station und werden unter Linux mit der Software wview2wettercgi und aufbereitet. Alle Angaben erfolgen ohne Gewähr für ihre Vollständigkeit oder Richtigkeit.
Kontakt: Rainer Krienke krienke@uni-koblenz.de . Meine Webseiten an der Uni Koblenz oder privat.
Version: $Revision: 0.78 $